sensor_id;sensor_type;location;lat;lon;timestamp;pressure;altitude;pressure_sealevel;temperature;humidity
47815;BME280;33579;50.058;18.130;2023-12-20T00:00:53;98755.09;;;6.46;100.00
47815;BME280;33579;50.058;18.130;2023-12-20T00:01:57;98747.06;;;6.50;100.00
47815;BME280;33579;50.058;18.130;2023-12-20T00:02:58;98741.94;;;6.48;100.00
47815;BME280;33579;50.058;18.130;2023-12-20T00:04:00;98743.34;;;6.52;100.00
47815;BME280;33579;50.058;18.130;2023-12-20T00:05:03;98735.50;;;6.52;100.00
47815;BME280;33579;50.058;18.130;2023-12-20T00:06:05;98736.34;;;6.53;100.00
47815;BME280;33579;50.058;18.130;2023-12-20T00:07:07;98737.31;;;6.52;100.00
47815;BME280;33579;50.058;18.130;2023-12-20T00:08:09;98743.25;;;6.54;100.00
47815;BME280;33579;50.058;18.130;2023-12-20T00:09:11;98748.34;;;6.55;100.00
47815;BME280;33579;50.058;18.130;2023-12-20T00:10:13;98752.97;;;6.52;100.00
47815;BME280;33579;50.058;18.130;2023-12-20T00:11:15;98755.00;;;6.48;100.00
47815;BME280;33579;50.058;18.130;2023-12-20T00:12:17;98755.00;;;6.48;100.00
47815;BME280;33579;50.058;18.130;2023-12-20T00:13:18;98747.06;;;6.50;100.00
47815;BME280;33579;50.058;18.130;2023-12-20T00:14:20;98741.44;;;6.54;100.00
47815;BME280;33579;50.058;18.130;2023-12-20T00:15:22;98743.00;;;6.57;100.00
47815;BME280;33579;50.058;18.130;2023-12-20T00:16:23;98744.78;;;6.56;100.00
47815;BME280;33579;50.058;18.130;2023-12-20T00:17:25;98733.59;;;6.54;100.00
47815;BME280;33579;50.058;18.130;2023-12-20T00:18:27;98734.09;;;6.59;100.00
47815;BME280;33579;50.058;18.130;2023-12-20T00:19:28;98740.97;;;6.60;100.00
47815;BME280;33579;50.058;18.130;2023-12-20T00:20:30;98739.06;;;6.63;100.00
47815;BME280;33579;50.058;18.130;2023-12-20T00:21:33;98732.06;;;6.63;100.00
47815;BME280;33579;50.058;18.130;2023-12-20T00:22:34;98731.72;;;6.56;100.00
47815;BME280;33579;50.058;18.130;2023-12-20T00:23:36;98727.19;;;6.58;100.00
47815;BME280;33579;50.058;18.130;2023-12-20T00:24:38;98730.78;;;6.57;100.00
47815;BME280;33579;50.058;18.130;2023-12-20T00:25:39;98721.13;;;6.58;100.00
47815;BME280;33579;50.058;18.130;2023-12-20T00:26:41;98710.81;;;6.56;100.00
47815;BME280;33579;50.058;18.130;2023-12-20T00:27:43;98720.06;;;6.60;100.00
47815;BME280;33579;50.058;18.130;2023-12-20T00:28:45;98716.38;;;6.63;100.00
47815;BME280;33579;50.058;18.130;2023-12-20T00:29:47;98708.66;;;6.61;100.00
47815;BME280;33579;50.058;18.130;2023-12-20T00:30:53;98717.91;;;6.66;100.00
47815;BME280;33579;50.058;18.130;2023-12-20T00:31:55;98709.00;;;6.68;100.00
47815;BME280;33579;50.058;18.130;2023-12-20T00:32:57;98711.75;;;6.67;100.00
47815;BME280;33579;50.058;18.130;2023-12-20T00:33:59;98714.22;;;6.68;100.00
47815;BME280;33579;50.058;18.130;2023-12-20T00:35:01;98717.81;;;6.67;100.00
47815;BME280;33579;50.058;18.130;2023-12-20T00:36:03;98713.41;;;6.68;100.00
47815;BME280;33579;50.058;18.130;2023-12-20T00:37:05;98709.84;;;6.69;100.00
47815;BME280;33579;50.058;18.130;2023-12-20T00:38:07;98709.84;;;6.69;100.00
47815;BME280;33579;50.058;18.130;2023-12-20T00:39:08;98719.34;;;6.70;100.00
47815;BME280;33579;50.058;18.130;2023-12-20T00:40:10;98710.66;;;6.69;100.00
47815;BME280;33579;50.058;18.130;2023-12-20T00:41:12;98723.97;;;6.78;100.00
47815;BME280;33579;50.058;18.130;2023-12-20T00:42:14;98714.84;;;6.72;100.00
47815;BME280;33579;50.058;18.130;2023-12-20T00:43:16;98717.56;;;6.70;100.00
47815;BME280;33579;50.058;18.130;2023-12-20T00:44:18;98716.84;;;6.68;100.00
47815;BME280;33579;50.058;18.130;2023-12-20T00:45:19;98700.34;;;6.68;100.00
47815;BME280;33579;50.058;18.130;2023-12-20T00:46:22;98702.22;;;6.77;100.00
47815;BME280;33579;50.058;18.130;2023-12-20T00:47:23;98699.13;;;6.83;100.00
47815;BME280;33579;50.058;18.130;2023-12-20T00:48:25;98696.63;;;6.82;100.00
47815;BME280;33579;50.058;18.130;2023-12-20T00:49:28;98693.31;;;6.80;100.00
47815;BME280;33579;50.058;18.130;2023-12-20T00:50:30;98686.88;;;6.84;100.00
47815;BME280;33579;50.058;18.130;2023-12-20T00:51:32;98695.66;;;6.83;100.00
47815;BME280;33579;50.058;18.130;2023-12-20T00:52:34;98692.84;;;6.86;100.00
47815;BME280;33579;50.058;18.130;2023-12-20T00:53:36;98688.66;;;6.83;100.00
47815;BME280;33579;50.058;18.130;2023-12-20T00:54:38;98691.03;;;6.86;100.00
47815;BME280;33579;50.058;18.130;2023-12-20T00:55:40;98693.41;;;6.89;99.07
47815;BME280;33579;50.058;18.130;2023-12-20T00:56:41;98687.94;;;6.93;100.00
47815;BME280;33579;50.058;18.130;2023-12-20T00:57:43;98696.94;;;7.00;99.67
47815;BME280;33579;50.058;18.130;2023-12-20T00:58:45;98686.63;;;6.98;98.02
47815;BME280;33579;50.058;18.130;2023-12-20T00:59:47;98691.72;;;7.00;99.38
47815;BME280;33579;50.058;18.130;2023-12-20T01:00:49;98689.56;;;7.05;100.00
47815;BME280;33579;50.058;18.130;2023-12-20T01:01:50;98685.38;;;7.14;100.00
47815;BME280;33579;50.058;18.130;2023-12-20T01:02:52;98695.31;;;7.20;100.00
47815;BME280;33579;50.058;18.130;2023-12-20T01:03:54;98690.56;;;7.25;100.00
47815;BME280;33579;50.058;18.130;2023-12-20T01:04:57;98685.91;;;7.29;100.00
47815;BME280;33579;50.058;18.130;2023-12-20T01:05:59;98676.16;;;7.31;100.00
47815;BME280;33579;50.058;18.130;2023-12-20T01:07:01;98684.00;;;7.31;100.00
47815;BME280;33579;50.058;18.130;2023-12-20T01:08:04;98683.16;;;7.30;100.00
47815;BME280;33579;50.058;18.130;2023-12-20T01:09:05;98688.41;;;7.30;100.00
47815;BME280;33579;50.058;18.130;2023-12-20T01:10:08;98685.50;;;7.34;100.00
47815;BME280;33579;50.058;18.130;2023-12-20T01:11:10;98678.50;;;7.34;100.00
47815;BME280;33579;50.058;18.130;2023-12-20T01:12:11;98681.81;;;7.36;100.00
47815;BME280;33579;50.058;18.130;2023-12-20T01:13:13;98683.63;;;7.36;100.00
47815;BME280;33579;50.058;18.130;2023-12-20T01:14:15;98680.88;;;7.37;100.00
47815;BME280;33579;50.058;18.130;2023-12-20T01:15:16;98684.34;;;7.38;100.00
47815;BME280;33579;50.058;18.130;2023-12-20T01:16:18;98681.00;;;7.36;100.00
47815;BME280;33579;50.058;18.130;2023-12-20T01:17:20;98678.94;;;7.39;100.00
47815;BME280;33579;50.058;18.130;2023-12-20T01:18:22;98670.28;;;7.39;100.00
47815;BME280;33579;50.058;18.130;2023-12-20T01:19:24;98677.88;;;7.42;100.00
47815;BME280;33579;50.058;18.130;2023-12-20T01:20:27;98672.38;;;7.45;100.00
47815;BME280;33579;50.058;18.130;2023-12-20T01:21:28;98673.13;;;7.47;100.00
47815;BME280;33579;50.058;18.130;2023-12-20T01:22:30;98666.06;;;7.48;100.00
47815;BME280;33579;50.058;18.130;2023-12-20T01:23:32;98671.41;;;7.46;100.00
47815;BME280;33579;50.058;18.130;2023-12-20T01:24:34;98673.50;;;7.42;100.00
47815;BME280;33579;50.058;18.130;2023-12-20T01:25:36;98675.16;;;7.43;100.00
47815;BME280;33579;50.058;18.130;2023-12-20T01:26:38;98663.41;;;7.38;100.00
47815;BME280;33579;50.058;18.130;2023-12-20T01:27:39;98660.44;;;7.31;100.00
47815;BME280;33579;50.058;18.130;2023-12-20T01:28:41;98648.44;;;7.28;100.00
47815;BME280;33579;50.058;18.130;2023-12-20T01:29:43;98650.81;;;7.31;100.00
47815;BME280;33579;50.058;18.130;2023-12-20T01:30:45;98644.59;;;7.32;100.00
47815;BME280;33579;50.058;18.130;2023-12-20T01:31:47;98663.88;;;7.31;100.00
47815;BME280;33579;50.058;18.130;2023-12-20T01:32:48;98663.81;;;7.22;100.00
47815;BME280;33579;50.058;18.130;2023-12-20T01:33:50;98653.47;;;7.20;100.00
47815;BME280;33579;50.058;18.130;2023-12-20T01:34:52;98648.59;;;7.15;100.00
47815;BME280;33579;50.058;18.130;2023-12-20T01:35:54;98653.03;;;7.15;100.00
47815;BME280;33579;50.058;18.130;2023-12-20T01:36:56;98646.56;;;7.19;99.89
47815;BME280;33579;50.058;18.130;2023-12-20T01:37:58;98653.03;;;7.15;100.00
47815;BME280;33579;50.058;18.130;2023-12-20T01:38:59;98650.66;;;7.12;100.00
47815;BME280;33579;50.058;18.130;2023-12-20T01:40:01;98651.69;;;7.21;100.00
47815;BME280;33579;50.058;18.130;2023-12-20T01:41:03;98657.13;;;7.29;100.00
47815;BME280;33579;50.058;18.130;2023-12-20T01:42:05;98655.06;;;7.32;100.00
47815;BME280;33579;50.058;18.130;2023-12-20T01:43:08;98653.03;;;7.36;100.00
47815;BME280;33579;50.058;18.130;2023-12-20T01:44:10;98651.97;;;7.39;100.00
47815;BME280;33579;50.058;18.130;2023-12-20T01:45:12;98644.81;;;7.41;100.00
47815;BME280;33579;50.058;18.130;2023-12-20T01:46:14;98640.66;;;7.38;100.00
47815;BME280;33579;50.058;18.130;2023-12-20T01:47:16;98644.94;;;7.39;98.95
47815;BME280;33579;50.058;18.130;2023-12-20T01:48:19;98650.44;;;7.36;97.90
47815;BME280;33579;50.058;18.130;2023-12-20T01:49:21;98652.22;;;7.36;98.47
47815;BME280;33579;50.058;18.130;2023-12-20T01:50:24;98644.50;;;7.34;97.54
47815;BME280;33579;50.058;18.130;2023-12-20T01:51:26;98644.06;;;7.29;96.03
47815;BME280;33579;50.058;18.130;2023-12-20T01:52:28;98652.47;;;7.32;95.93
47815;BME280;33579;50.058;18.130;2023-12-20T01:53:31;98646.84;;;7.37;96.42
47815;BME280;33579;50.058;18.130;2023-12-20T01:54:33;98644.94;;;7.39;96.44
47815;BME280;33579;50.058;18.130;2023-12-20T01:55:39;98657.19;;;7.39;95.52
47815;BME280;33579;50.058;18.130;2023-12-20T01:56:42;98658.66;;;7.31;94.72
47815;BME280;33579;50.058;18.130;2023-12-20T01:57:44;98653.03;;;7.15;94.79
47815;BME280;33579;50.058;18.130;2023-12-20T01:58:47;98643.88;;;7.09;94.27
47815;BME280;33579;50.058;18.130;2023-12-20T01:59:49;98642.34;;;7.07;93.00
47815;BME280;33579;50.058;18.130;2023-12-20T02:00:52;98641.53;;;7.06;93.40
47815;BME280;33579;50.058;18.130;2023-12-20T02:01:54;98647.56;;;7.07;94.00
47815;BME280;33579;50.058;18.130;2023-12-20T02:02:57;98646.19;;;7.02;93.95
47815;BME280;33579;50.058;18.130;2023-12-20T02:04:03;98639.28;;;7.01;95.28
47815;BME280;33579;50.058;18.130;2023-12-20T02:05:07;98644.50;;;7.01;95.09
47815;BME280;33579;50.058;18.130;2023-12-20T02:06:09;98644.19;;;6.95;94.57
47815;BME280;33579;50.058;18.130;2023-12-20T02:07:11;98641.25;;;6.88;94.82
47815;BME280;33579;50.058;18.130;2023-12-20T02:08:13;98629.34;;;6.84;95.93
47815;BME280;33579;50.058;18.130;2023-12-20T02:09:15;98627.94;;;6.80;96.60
47815;BME280;33579;50.058;18.130;2023-12-20T02:10:17;98622.81;;;6.78;97.69
47815;BME280;33579;50.058;18.130;2023-12-20T02:11:20;98625.44;;;6.78;98.03
47815;BME280;33579;50.058;18.130;2023-12-20T02:12:21;98623.22;;;6.73;98.53
47815;BME280;33579;50.058;18.130;2023-12-20T02:13:23;98619.06;;;6.71;100.00
47815;BME280;33579;50.058;18.130;2023-12-20T02:14:25;98612.19;;;6.70;100.00
47815;BME280;33579;50.058;18.130;2023-12-20T02:15:27;98610.75;;;6.66;100.00
47815;BME280;33579;50.058;18.130;2023-12-20T02:16:28;98615.03;;;6.67;100.00
47815;BME280;33579;50.058;18.130;2023-12-20T02:17:31;98622.41;;;6.61;100.00
47815;BME280;33579;50.058;18.130;2023-12-20T02:18:33;98623.34;;;6.60;100.00
47815;BME280;33579;50.058;18.130;2023-12-20T02:19:35;98618.38;;;6.57;100.00
47815;BME280;33579;50.058;18.130;2023-12-20T02:20:37;98620.50;;;6.52;100.00
47815;BME280;33579;50.058;18.130;2023-12-20T02:21:39;98615.06;;;6.55;99.75
47815;BME280;33579;50.058;18.130;2023-12-20T02:22:40;98605.31;;;6.57;99.75
47815;BME280;33579;50.058;18.130;2023-12-20T02:23:42;98615.78;;;6.57;100.00
47815;BME280;33579;50.058;18.130;2023-12-20T02:24:44;98617.44;;;6.58;100.00
47815;BME280;33579;50.058;18.130;2023-12-20T02:25:45;98613.25;;;6.56;100.00
47815;BME280;33579;50.058;18.130;2023-12-20T02:26:47;98613.53;;;6.53;100.00
47815;BME280;33579;50.058;18.130;2023-12-20T02:27:49;98605.19;;;6.47;100.00
47815;BME280;33579;50.058;18.130;2023-12-20T02:28:53;98605.09;;;6.49;100.00
47815;BME280;33579;50.058;18.130;2023-12-20T02:29:56;98616.25;;;6.51;100.00
47815;BME280;33579;50.058;18.130;2023-12-20T02:30:57;98605.69;;;6.53;100.00
47815;BME280;33579;50.058;18.130;2023-12-20T02:32:00;98603.91;;;6.42;100.00
47815;BME280;33579;50.058;18.130;2023-12-20T02:33:03;98605.94;;;6.38;100.00
47815;BME280;33579;50.058;18.130;2023-12-20T02:34:08;98609.97;;;6.31;100.00
47815;BME280;33579;50.058;18.130;2023-12-20T02:35:10;98612.84;;;6.28;100.00
47815;BME280;33579;50.058;18.130;2023-12-20T02:36:12;98612.97;;;6.26;100.00
47815;BME280;33579;50.058;18.130;2023-12-20T02:37:14;98607.88;;;6.25;100.00
47815;BME280;33579;50.058;18.130;2023-12-20T02:38:16;98606.56;;;6.19;100.00
47815;BME280;33579;50.058;18.130;2023-12-20T02:39:19;98610.00;;;6.19;100.00
47815;BME280;33579;50.058;18.130;2023-12-20T02:40:20;98608.59;;;6.15;100.00
47815;BME280;33579;50.058;18.130;2023-12-20T02:41:22;98608.69;;;6.02;100.00
47815;BME280;33579;50.058;18.130;2023-12-20T02:42:24;98608.81;;;5.89;100.00
47815;BME280;33579;50.058;18.130;2023-12-20T02:43:26;98614.72;;;5.91;100.00
47815;BME280;33579;50.058;18.130;2023-12-20T02:44:28;98614.38;;;5.85;100.00
47815;BME280;33579;50.058;18.130;2023-12-20T02:45:29;98608.91;;;5.76;100.00
47815;BME280;33579;50.058;18.130;2023-12-20T02:46:31;98619.13;;;5.68;100.00
47815;BME280;33579;50.058;18.130;2023-12-20T02:47:33;98614.94;;;5.66;100.00
47815;BME280;33579;50.058;18.130;2023-12-20T02:48:34;98616.72;;;5.65;100.00
47815;BME280;33579;50.058;18.130;2023-12-20T02:49:36;98622.78;;;5.66;100.00
47815;BME280;33579;50.058;18.130;2023-12-20T02:50:39;98614.09;;;5.65;100.00
47815;BME280;33579;50.058;18.130;2023-12-20T02:51:40;98614.59;;;5.59;100.00
47815;BME280;33579;50.058;18.130;2023-12-20T02:52:44;98616.47;;;5.57;100.00
47815;BME280;33579;50.058;18.130;2023-12-20T02:53:46;98610.75;;;5.52;100.00
47815;BME280;33579;50.058;18.130;2023-12-20T02:54:48;98611.00;;;5.48;100.00
47815;BME280;33579;50.058;18.130;2023-12-20T02:55:50;98603.53;;;5.44;100.00
47815;BME280;33579;50.058;18.130;2023-12-20T02:56:51;98604.38;;;5.44;100.00
47815;BME280;33579;50.058;18.130;2023-12-20T02:57:53;98611.00;;;5.48;100.00
47815;BME280;33579;50.058;18.130;2023-12-20T02:58:55;98608.28;;;5.50;100.00
47815;BME280;33579;50.058;18.130;2023-12-20T02:59:56;98610.06;;;5.49;100.00
47815;BME280;33579;50.058;18.130;2023-12-20T03:00:58;98609.22;;;5.49;100.00
47815;BME280;33579;50.058;18.130;2023-12-20T03:02:00;98608.03;;;5.42;100.00
47815;BME280;33579;50.058;18.130;2023-12-20T03:03:02;98600.44;;;5.39;100.00
47815;BME280;33579;50.058;18.130;2023-12-20T03:04:04;98600.91;;;5.44;100.00
47815;BME280;33579;50.058;18.130;2023-12-20T03:05:06;98604.00;;;5.49;100.00
47815;BME280;33579;50.058;18.130;2023-12-20T03:06:08;98600.66;;;5.47;100.00
47815;BME280;33579;50.058;18.130;2023-12-20T03:07:10;98593.69;;;5.47;100.00
47815;BME280;33579;50.058;18.130;2023-12-20T03:08:11;98590.13;;;5.48;100.00
47815;BME280;33579;50.058;18.130;2023-12-20T03:09:13;98595.34;;;5.48;100.00
47815;BME280;33579;50.058;18.130;2023-12-20T03:10:15;98588.94;;;5.53;100.00
47815;BME280;33579;50.058;18.130;2023-12-20T03:11:27;98590.84;;;5.62;100.00
47815;BME280;33579;50.058;18.130;2023-12-20T03:12:29;98594.53;;;5.59;100.00
47815;BME280;33579;50.058;18.130;2023-12-20T03:13:30;98590.16;;;5.60;100.00
47815;BME280;33579;50.058;18.130;2023-12-20T03:14:32;98586.47;;;5.62;100.00
47815;BME280;33579;50.058;18.130;2023-12-20T03:15:34;98589.91;;;5.63;100.00
47815;BME280;33579;50.058;18.130;2023-12-20T03:16:36;98589.81;;;5.65;100.00
47815;BME280;33579;50.058;18.130;2023-12-20T03:17:38;98588.00;;;5.65;100.00
47815;BME280;33579;50.058;18.130;2023-12-20T03:18:40;98587.78;;;5.68;100.00
47815;BME280;33579;50.058;18.130;2023-12-20T03:19:42;98587.56;;;5.71;100.00
47815;BME280;33579;50.058;18.130;2023-12-20T03:20:43;98589.44;;;5.69;100.00
47815;BME280;33579;50.058;18.130;2023-12-20T03:21:45;98597.38;;;5.68;100.00
47815;BME280;33579;50.058;18.130;2023-12-20T03:22:47;98587.19;;;5.65;100.00
47815;BME280;33579;50.058;18.130;2023-12-20T03:23:49;98585.19;;;5.68;100.00
47815;BME280;33579;50.058;18.130;2023-12-20T03:24:50;98588.25;;;5.73;100.00
47815;BME280;33579;50.058;18.130;2023-12-20T03:25:52;98591.47;;;5.77;100.00
47815;BME280;33579;50.058;18.130;2023-12-20T03:26:54;98587.06;;;5.77;100.00
47815;BME280;33579;50.058;18.130;2023-12-20T03:27:56;98590.28;;;5.81;100.00
47815;BME280;33579;50.058;18.130;2023-12-20T03:28:58;98585.91;;;5.82;100.00
47815;BME280;33579;50.058;18.130;2023-12-20T03:30:00;98583.50;;;5.79;100.00
47815;BME280;33579;50.058;18.130;2023-12-20T03:31:02;98589.91;;;5.74;100.00
47815;BME280;33579;50.058;18.130;2023-12-20T03:32:04;98593.25;;;5.76;100.00
47815;BME280;33579;50.058;18.130;2023-12-20T03:33:06;98593.84;;;5.80;100.00
47815;BME280;33579;50.058;18.130;2023-12-20T03:34:08;98586.72;;;5.82;100.00
47815;BME280;33579;50.058;18.130;2023-12-20T03:35:11;98585.66;;;5.73;100.00
47815;BME280;33579;50.058;18.130;2023-12-20T03:36:13;98585.66;;;5.73;100.00
47815;BME280;33579;50.058;18.130;2023-12-20T03:37:15;98585.31;;;5.78;100.00
47815;BME280;33579;50.058;18.130;2023-12-20T03:38:17;98583.63;;;5.77;100.00
47815;BME280;33579;50.058;18.130;2023-12-20T03:39:18;98592.16;;;5.68;100.00
47815;BME280;33579;50.058;18.130;2023-12-20T03:40:20;98592.28;;;5.66;100.00
47815;BME280;33579;50.058;18.130;2023-12-20T03:41:22;98591.69;;;5.62;100.00
47815;BME280;33579;50.058;18.130;2023-12-20T03:42:24;98597.13;;;5.59;100.00
47815;BME280;33579;50.058;18.130;2023-12-20T03:43:26;98596.06;;;5.62;100.00
47815;BME280;33579;50.058;18.130;2023-12-20T03:44:27;98598.44;;;5.65;100.00
47815;BME280;33579;50.058;18.130;2023-12-20T03:45:30;98596.53;;;5.67;100.00
47815;BME280;33579;50.058;18.130;2023-12-20T03:46:31;98594.44;;;5.72;100.00
47815;BME280;33579;50.058;18.130;2023-12-20T03:47:33;98593.25;;;5.76;100.00
47815;BME280;33579;50.058;18.130;2023-12-20T03:48:35;98587.41;;;5.73;100.00
47815;BME280;33579;50.058;18.130;2023-12-20T03:49:37;98593.59;;;5.72;100.00
47815;BME280;33579;50.058;18.130;2023-12-20T03:50:39;98586.09;;;5.67;100.00
47815;BME280;33579;50.058;18.130;2023-12-20T03:51:40;98581.97;;;5.65;100.00
47815;BME280;33579;50.058;18.130;2023-12-20T03:52:43;98580.19;;;5.65;100.00
47815;BME280;33579;50.058;18.130;2023-12-20T03:53:44;98578.75;;;5.61;100.00
47815;BME280;33579;50.058;18.130;2023-12-20T03:54:46;98582.44;;;5.58;100.00
47815;BME280;33579;50.058;18.130;2023-12-20T03:55:48;98573.53;;;5.61;100.00
47815;BME280;33579;50.058;18.130;2023-12-20T03:56:50;98567.47;;;5.60;100.00
47815;BME280;33579;50.058;18.130;2023-12-20T03:57:52;98577.69;;;5.63;100.00
47815;BME280;33579;50.058;18.130;2023-12-20T03:58:54;98577.22;;;5.58;100.00
47815;BME280;33579;50.058;18.130;2023-12-20T03:59:56;98582.19;;;5.50;100.00
47815;BME280;33579;50.058;18.130;2023-12-20T04:00:58;98579.00;;;5.58;100.00
47815;BME280;33579;50.058;18.130;2023-12-20T04:02:00;98577.91;;;5.60;100.00
47815;BME280;33579;50.058;18.130;2023-12-20T04:03:01;98577.81;;;5.62;100.00
47815;BME280;33579;50.058;18.130;2023-12-20T04:04:03;98578.75;;;5.61;100.00
47815;BME280;33579;50.058;18.130;2023-12-20T04:05:06;98578.06;;;5.59;100.00
47815;BME280;33579;50.058;18.130;2023-12-20T04:06:08;98574.84;;;5.55;100.00
47815;BME280;33579;50.058;18.130;2023-12-20T04:07:11;98572.94;;;5.57;100.00
47815;BME280;33579;50.058;18.130;2023-12-20T04:08:13;98571.38;;;5.55;100.00
47815;BME280;33579;50.058;18.130;2023-12-20T04:09:15;98575.91;;;5.53;100.00
47815;BME280;33579;50.058;18.130;2023-12-20T04:10:17;98567.94;;;5.43;100.00
47815;BME280;33579;50.058;18.130;2023-12-20T04:11:18;98565.81;;;5.48;100.00
47815;BME280;33579;50.058;18.130;2023-12-20T04:12:20;98567.97;;;5.54;100.00
47815;BME280;33579;50.058;18.130;2023-12-20T04:13:22;98557.19;;;5.59;100.00
47815;BME280;33579;50.058;18.130;2023-12-20T04:14:24;98557.88;;;5.61;100.00
47815;BME280;33579;50.058;18.130;2023-12-20T04:15:25;98551.47;;;5.65;100.00
47815;BME280;33579;50.058;18.130;2023-12-20T04:16:28;98545.91;;;5.70;100.00
47815;BME280;33579;50.058;18.130;2023-12-20T04:17:29;98553.97;;;5.67;100.00
47815;BME280;33579;50.058;18.130;2023-12-20T04:18:31;98551.72;;;5.62;100.00
47815;BME280;33579;50.058;18.130;2023-12-20T04:19:33;98559.66;;;5.60;100.00
47815;BME280;33579;50.058;18.130;2023-12-20T04:20:35;98557.19;;;5.59;100.00
47815;BME280;33579;50.058;18.130;2023-12-20T04:21:37;98565.34;;;5.54;100.00
47815;BME280;33579;50.058;18.130;2023-12-20T04:22:39;98557.19;;;5.59;100.00
47815;BME280;33579;50.058;18.130;2023-12-20T04:23:40;98555.53;;;5.58;100.00
47815;BME280;33579;50.058;18.130;2023-12-20T04:24:42;98555.28;;;5.61;100.00
47815;BME280;33579;50.058;18.130;2023-12-20T04:25:44;98548.25;;;5.61;100.00
47815;BME280;33579;50.058;18.130;2023-12-20T04:26:46;98557.78;;;5.62;100.00
47815;BME280;33579;50.058;18.130;2023-12-20T04:27:48;98557.03;;;5.60;100.00
47815;BME280;33579;50.058;18.130;2023-12-20T04:28:50;98556.94;;;5.62;100.00
47815;BME280;33579;50.058;18.130;2023-12-20T04:29:55;98552.19;;;5.56;100.00
47815;BME280;33579;50.058;18.130;2023-12-20T04:30:57;98556.91;;;5.51;100.00
47815;BME280;33579;50.058;18.130;2023-12-20T04:31:59;98557.16;;;5.47;100.00
47815;BME280;33579;50.058;18.130;2023-12-20T04:33:01;98553.94;;;5.44;100.00
47815;BME280;33579;50.058;18.130;2023-12-20T04:34:02;98556.44;;;5.45;100.00
47815;BME280;33579;50.058;18.130;2023-12-20T04:35:04;98551.59;;;5.41;100.00
47815;BME280;33579;50.058;18.130;2023-12-20T04:36:06;98560.34;;;5.40;100.00
47815;BME280;33579;50.058;18.130;2023-12-20T04:37:08;98558.56;;;5.40;100.00
47815;BME280;33579;50.058;18.130;2023-12-20T04:38:10;98551.34;;;5.44;100.00
47815;BME280;33579;50.058;18.130;2023-12-20T04:39:13;98552.63;;;5.38;100.00
47815;BME280;33579;50.058;18.130;2023-12-20T04:40:15;98548.97;;;5.41;100.00
47815;BME280;33579;50.058;18.130;2023-12-20T04:41:17;98566.38;;;5.40;100.00
47815;BME280;33579;50.058;18.130;2023-12-20T04:42:19;98564.97;;;5.36;100.00
47815;BME280;33579;50.058;18.130;2023-12-20T04:43:21;98560.56;;;5.37;100.00
47815;BME280;33579;50.058;18.130;2023-12-20T04:44:23;98561.31;;;5.39;100.00
47815;BME280;33579;50.058;18.130;2023-12-20T04:45:25;98560.94;;;5.32;100.00
47815;BME280;33579;50.058;18.130;2023-12-20T04:46:27;98557.59;;;5.30;100.00
47815;BME280;33579;50.058;18.130;2023-12-20T04:47:28;98550.16;;;5.25;100.00
47815;BME280;33579;50.058;18.130;2023-12-20T04:48:30;98560.69;;;5.24;100.00
47815;BME280;33579;50.058;18.130;2023-12-20T04:49:32;98552.97;;;5.22;100.00
47815;BME280;33579;50.058;18.130;2023-12-20T04:50:34;98556.28;;;5.24;100.00
47815;BME280;33579;50.058;18.130;2023-12-20T04:51:36;98552.50;;;5.28;100.00
47815;BME280;33579;50.058;18.130;2023-12-20T04:52:37;98549.56;;;5.33;100.00
47815;BME280;33579;50.058;18.130;2023-12-20T04:53:39;98551.31;;;5.32;100.00
47815;BME280;33579;50.058;18.130;2023-12-20T04:54:41;98556.69;;;5.31;100.00
47815;BME280;33579;50.058;18.130;2023-12-20T04:55:45;98556.09;;;5.39;100.00
47815;BME280;33579;50.058;18.130;2023-12-20T04:56:47;98543.88;;;5.39;100.00
47815;BME280;33579;50.058;18.130;2023-12-20T04:57:49;98546.00;;;5.34;100.00
47815;BME280;33579;50.058;18.130;2023-12-20T04:58:51;98552.97;;;5.22;100.00
47815;BME280;33579;50.058;18.130;2023-12-20T04:59:52;98549.19;;;5.26;100.00
47815;BME280;33579;50.058;18.130;2023-12-20T05:00:54;98544.78;;;5.27;100.00
47815;BME280;33579;50.058;18.130;2023-12-20T05:01:56;98554.41;;;5.26;100.00
47815;BME280;33579;50.058;18.130;2023-12-20T05:02:58;98556.78;;;5.29;100.00
47815;BME280;33579;50.058;18.130;2023-12-20T05:03:59;98554.28;;;5.28;100.00
47815;BME280;33579;50.058;18.130;2023-12-20T05:05:01;98555.81;;;5.30;100.00
47815;BME280;33579;50.058;18.130;2023-12-20T05:06:03;98554.41;;;5.26;100.00
47815;BME280;33579;50.058;18.130;2023-12-20T05:07:05;98555.22;;;5.27;100.00
47815;BME280;33579;50.058;18.130;2023-12-20T05:08:07;98557.03;;;5.26;100.00
47815;BME280;33579;50.058;18.130;2023-12-20T05:09:09;98555.47;;;5.24;100.00
47815;BME280;33579;50.058;18.130;2023-12-20T05:10:11;98552.50;;;5.28;100.00
47815;BME280;33579;50.058;18.130;2023-12-20T05:11:14;98552.97;;;5.22;100.00
47815;BME280;33579;50.058;18.130;2023-12-20T05:12:16;98562.56;;;5.22;100.00
47815;BME280;33579;50.058;18.130;2023-12-20T05:13:18;98558.75;;;5.14;100.00
47815;BME280;33579;50.058;18.130;2023-12-20T05:14:20;98563.34;;;5.11;100.00
47815;BME280;33579;50.058;18.130;2023-12-20T05:15:22;98566.44;;;5.04;100.00
47815;BME280;33579;50.058;18.130;2023-12-20T05:16:24;98560.72;;;4.99;100.00
47815;BME280;33579;50.058;18.130;2023-12-20T05:17:25;98569.09;;;4.91;100.00
47815;BME280;33579;50.058;18.130;2023-12-20T05:18:27;98566.50;;;4.91;100.00
47815;BME280;33579;50.058;18.130;2023-12-20T05:19:29;98564.13;;;4.88;100.00
47815;BME280;33579;50.058;18.130;2023-12-20T05:20:31;98571.00;;;4.89;100.00
47815;BME280;33579;50.058;18.130;2023-12-20T05:21:33;98569.09;;;4.91;100.00
47815;BME280;33579;50.058;18.130;2023-12-20T05:22:34;98570.28;;;4.87;100.00
47815;BME280;33579;50.058;18.130;2023-12-20T05:23:36;98575.41;;;4.89;100.00
47815;BME280;33579;50.058;18.130;2023-12-20T05:24:38;98570.19;;;4.89;100.00